Terminal Aerodrome Forecast
Issued by NWS Tulsa, OK

Home | Current Version | Previous Version | Text Only | Print | Product List | Glossary On
Versions: 1 2 3 4 5 6 7 8 9 10 11 12 13 14 15 16
754
FTUS44 KTSA 191128
TAFTUL
TAF
KTUL 191128Z 1912/2012 28004KT P6SM SKC WS020/36040KT
     FM191600 23008KT P6SM SKC
     FM200000 17006KT P6SM SKC=

USA.gov is the U.S. government's official web portal to all federal, state and local government web resources and services.